Time;durP1;ratioP1;P1;durP2;ratioP2;P2;SDS_P1;SDS_P2;PMS_P1;PMS_P2;Temp;Humidity;BMP_temperature;BMP_pressure;BME280_temperature;BME280_humidity;BME280_pressure;Samples;Min_cycle;Max_cycle;Signal;HPM_P1;HPM_P2
2022/11/25 00:01:34;;;;;;;33.60;18.15;;;;;;;5.72;99.75;100970.34;4940775;28;20052;-70
2022/11/25 00:04:02;;;;;;;33.03;18.08;;;;;;;5.78;99.97;100972.13;4916002;29;20399;-69
2022/11/25 00:06:34;;;;;;;33.78;17.30;;;;;;;5.84;100.00;100973.03;4915704;29;20048;-69
2022/11/25 00:09:09;;;;;;;30.65;16.67;;;;;;;5.85;99.73;100969.25;4928163;29;20058;-70
2022/11/25 00:11:40;;;;;;;28.17;16.52;;;;;;;5.82;99.11;100973.28;4937031;29;20410;-70
2022/11/25 00:14:13;;;;;;;30.85;16.38;;;;;;;5.72;98.32;100968.44;4954056;29;20047;-70
2022/11/25 00:16:42;;;;;;;27.30;16.05;;;;;;;5.70;98.28;100964.31;4951298;29;20062;-70
2022/11/25 00:19:16;;;;;;;27.58;15.70;;;;;;;5.69;98.50;100962.66;4951727;29;20056;-70
2022/11/25 00:21:44;;;;;;;25.73;15.48;;;;;;;5.70;99.16;100965.16;4952570;29;20063;-70
2022/11/25 00:24:14;;;;;;;29.52;14.93;;;;;;;5.72;98.80;100956.78;4952603;28;20058;-70
2022/11/25 00:26:42;;;;;;;29.02;16.80;;;;;;;5.70;99.12;100959.72;4952422;29;20062;-70
2022/11/25 00:29:11;;;;;;;28.13;16.55;;;;;;;5.81;98.98;100965.38;4951598;29;20052;-70
2022/11/25 00:31:40;;;;;;;29.98;15.00;;;;;;;5.79;99.30;100963.72;4932481;29;20054;-70
2022/11/25 00:34:12;;;;;;;29.92;16.02;;;;;;;5.78;99.21;100953.91;4950178;29;20518;-70
2022/11/25 00:36:40;;;;;;;25.42;14.85;;;;;;;5.83;98.65;100947.78;4953697;28;20058;-70
2022/11/25 00:39:14;;;;;;;32.25;15.10;;;;;;;5.85;98.67;100945.66;4941538;29;20494;-70
2022/11/25 00:44:40;;;;;;;29.05;16.65;;;;;;;5.79;98.25;100952.03;4909135;29;19926;-70
2022/11/25 00:47:15;;;;;;;27.05;16.33;;;;;;;5.82;98.40;100948.81;4916023;29;20060;-70
2022/11/25 00:49:48;;;;;;;29.67;16.63;;;;;;;5.77;98.53;100948.75;4922589;29;20048;-69
2022/11/25 00:52:22;;;;;;;28.20;17.35;;;;;;;5.74;98.23;100944.63;4922313;29;20534;-70
2022/11/25 00:54:51;;;;;;;29.35;15.23;;;;;;;5.69;98.72;100940.94;4901739;29;20416;-70
2022/11/25 00:57:22;;;;;;;26.98;16.23;;;;;;;5.69;99.09;100959.94;4935627;29;20052;-70
2022/11/25 00:59:50;;;;;;;29.40;15.00;;;;;;;5.68;98.78;100958.31;4939600;29;20535;-70
2022/11/25 01:02:21;;;;;;;25.77;15.27;;;;;;;5.77;98.86;100959.59;4918691;29;20040;-70
2022/11/25 01:04:49;;;;;;;28.65;15.13;;;;;;;5.85;98.64;100956.50;4908503;29;20040;-70
2022/11/25 01:07:18;;;;;;;27.10;15.68;;;;;;;5.87;99.26;100970.66;4901810;29;20048;-70
2022/11/25 01:09:47;;;;;;;26.92;16.05;;;;;;;5.94;99.18;100970.56;4938532;29;20390;-70
2022/11/25 01:12:16;;;;;;;28.42;15.10;;;;;;;5.94;99.05;100975.16;4956993;28;20062;-70
2022/11/25 01:14:45;;;;;;;23.35;13.75;;;;;;;6.01;99.25;100986.72;4956653;29;20051;-70
2022/11/25 01:17:13;;;;;;;25.85;14.90;;;;;;;5.97;98.67;100997.22;4955354;29;20058;-70
2022/11/25 01:19:41;;;;;;;25.13;14.32;;;;;;;6.01;98.70;100994.88;4953865;28;20047;-70
2022/11/25 01:22:09;;;;;;;26.08;14.23;;;;;;;6.07;97.93;100991.25;4954252;28;20058;-70
2022/11/25 01:24:37;;;;;;;28.52;15.73;;;;;;;6.07;98.23;100993.97;4955945;29;20055;-70
2022/11/25 01:27:08;;;;;;;22.45;14.18;;;;;;;6.07;97.64;100991.25;4923872;29;20055;-70
2022/11/25 01:29:40;;;;;;;30.67;15.48;;;;;;;6.04;98.06;100995.25;4916824;29;20055;-70
2022/11/25 01:32:13;;;;;;;25.77;14.30;;;;;;;5.99;97.78;101000.56;4924001;29;20059;-70
2022/11/25 01:34:42;;;;;;;27.45;15.43;;;;;;;5.97;97.79;101007.28;4923265;29;20051;-70
2022/11/25 01:37:11;;;;;;;21.27;13.38;;;;;;;6.02;97.83;101002.81;4939289;29;20562;-70
2022/11/25 01:39:39;;;;;;;23.90;14.60;;;;;;;5.89;98.04;101009.31;4953839;28;20047;-70
2022/11/25 01:42:07;;;;;;;27.58;15.90;;;;;;;5.82;98.34;101026.78;4955157;29;20062;-70
2022/11/25 01:44:40;;;;;;;32.67;15.02;;;;;;;5.83;98.00;101023.84;4926312;29;20458;-70
2022/11/25 01:47:17;;;;;;;25.60;14.73;;;;;;;5.70;98.29;101024.91;4948569;29;20044;-70
2022/11/25 01:50:09;;;;;;;27.63;14.75;;;;;;;5.68;98.40;101024.31;4954817;29;20040;-70
2022/11/25 01:52:45;;;;;;;31.77;14.65;;;;;;;5.57;97.95;101033.28;4955970;29;20058;-70
2022/11/25 01:55:23;;;;;;;25.30;14.52;;;;;;;5.55;98.38;101035.38;4955946;29;20054;-70
2022/11/25 01:58:06;;;;;;;27.88;15.02;;;;;;;5.53;98.39;101035.63;4955916;29;20058;-70
2022/11/25 02:00:36;;;;;;;24.50;14.45;;;;;;;5.53;98.33;101043.78;4937431;29;20062;-70
2022/11/25 02:03:06;;;;;;;30.83;15.70;;;;;;;5.55;98.67;101041.66;4954849;29;20512;-70
2022/11/25 02:05:53;;;;;;;24.27;14.50;;;;;;;5.56;98.60;101047.88;4955682;29;20039;-70
2022/11/25 02:08:23;;;;;;;29.35;15.18;;;;;;;5.59;98.55;101053.72;4937287;29;20058;-70
2022/11/25 02:10:54;;;;;;;28.98;15.82;;;;;;;5.60;99.04;101049.94;4921319;29;20510;-70
2022/11/25 02:13:23;;;;;;;26.73;15.07;;;;;;;5.59;99.03;101040.13;4953563;29;20059;-70
2022/11/25 02:15:55;;;;;;;26.20;14.98;;;;;;;5.58;99.22;101041.16;4955795;29;20398;-70
2022/11/25 02:18:26;;;;;;;20.38;14.07;;;;;;;5.63;98.65;101043.19;4955661;28;20501;-70
2022/11/25 02:20:54;;;;;;;24.17;13.70;;;;;;;5.59;98.39;101059.13;4935487;29;20051;-70
2022/11/25 02:23:46;;;;;;;25.60;13.40;;;;;;;5.56;98.24;101066.91;4950780;29;20519;-70
2022/11/25 02:26:18;;;;;;;26.42;14.13;;;;;;;5.56;97.06;101067.72;4936205;29;20407;-70
2022/11/25 02:28:49;;;;;;;23.70;13.57;;;;;;;5.61;96.71;101069.75;4933704;29;20051;-70
2022/11/25 02:31:20;;;;;;;26.23;13.85;;;;;;;5.59;97.34;101061.84;4934866;29;20480;-70
2022/11/25 02:33:49;;;;;;;27.40;13.15;;;;;;;5.65;96.93;101065.50;4934253;29;20048;-70
2022/11/25 02:36:20;;;;;;;22.70;12.63;;;;;;;5.67;95.93;101071.50;4934308;29;20483;-70
2022/11/25 02:38:54;;;;;;;20.42;12.20;;;;;;;5.71;95.79;101074.63;4933584;29;20047;-70
2022/11/25 02:41:30;;;;;;;24.55;12.82;;;;;;;5.68;96.19;101066.94;4896903;29;20060;-70
2022/11/25 02:44:02;;;;;;;21.17;12.30;;;;;;;5.71;96.19;101071.91;4901163;29;20036;-70
2022/11/25 02:46:30;;;;;;;19.02;12.05;;;;;;;5.69;96.13;101065.84;4916610;29;20492;-70
2022/11/25 02:49:03;;;;;;;21.42;11.63;;;;;;;5.68;96.23;101061.50;4917112;29;20051;-70
2022/11/25 02:51:39;;;;;;;25.58;13.60;;;;;;;5.68;96.33;101053.34;4930649;29;20049;-70
2022/11/25 02:54:10;;;;;;;27.60;13.27;;;;;;;5.64;96.16;101055.72;4934533;29;20048;-70
2022/11/25 02:56:39;;;;;;;23.17;12.30;;;;;;;5.81;96.36;101058.53;4935562;29;20055;-70
2022/11/25 02:59:09;;;;;;;18.50;11.88;;;;;;;5.81;95.67;101058.53;4926719;29;20052;-70
2022/11/25 03:01:38;;;;;;;22.45;11.70;;;;;;;5.78;96.11;101053.59;4946997;29;20056;-70
2022/11/25 03:04:09;;;;;;;21.42;12.27;;;;;;;5.94;95.49;101067.50;4915184;29;20068;-70
2022/11/25 03:06:37;;;;;;;19.33;11.70;;;;;;;5.88;95.51;101070.09;4914694;29;20055;-70
2022/11/25 03:09:08;;;;;;;22.15;12.38;;;;;;;5.87;95.63;101082.03;4932267;29;20055;-70
2022/11/25 03:14:24;;;;;;;23.55;11.93;;;;;;;5.93;94.84;101072.13;4934551;29;20059;-70
2022/11/25 03:16:53;;;;;;;21.70;12.38;;;;;;;6.04;95.32;101078.66;4933466;29;20056;-70
2022/11/25 03:19:21;;;;;;;27.58;12.10;;;;;;;5.89;94.83;101071.78;4931274;29;20058;-70
2022/11/25 03:21:51;;;;;;;20.52;11.68;;;;;;;5.98;95.16;101077.69;4929539;29;20043;-70
2022/11/25 03:24:19;;;;;;;24.83;12.57;;;;;;;5.91;94.74;101091.38;4933818;29;20047;-70
2022/11/25 03:26:49;;;;;;;22.05;12.15;;;;;;;5.95;94.67;101091.72;4918041;29;20403;-70
2022/11/25 03:29:17;;;;;;;19.67;11.55;;;;;;;6.01;94.43;101106.28;4940425;29;20403;-70
2022/11/25 03:31:45;;;;;;;18.70;10.52;;;;;;;6.04;94.75;101103.94;4935412;28;20534;-70
2022/11/25 03:34:13;;;;;;;18.92;11.05;;;;;;;6.05;94.86;101102.03;4933386;29;20384;-70
2022/11/25 03:36:42;;;;;;;22.00;12.18;;;;;;;6.05;95.36;101091.16;4917290;29;20407;-70
2022/11/25 03:39:10;;;;;;;19.88;10.20;;;;;;;6.07;95.40;101105.38;4922133;29;20043;-70
2022/11/25 03:41:39;;;;;;;21.63;11.05;;;;;;;6.04;95.14;101112.09;4935540;28;20048;-70
2022/11/25 03:44:07;;;;;;;19.42;10.98;;;;;;;6.07;95.70;101116.22;4941653;29;20503;-70
2022/11/25 03:46:36;;;;;;;22.85;11.30;;;;;;;6.15;95.65;101112.31;4917799;29;20054;-70
2022/11/25 03:49:07;;;;;;;21.92;11.73;;;;;;;6.15;95.30;101124.03;4942559;29;20411;-70
2022/11/25 03:51:35;;;;;;;20.70;11.30;;;;;;;6.25;95.37;101119.91;4917522;29;20048;-70
2022/11/25 03:54:07;;;;;;;22.35;11.80;;;;;;;6.28;94.92;101112.09;4917685;29;20059;-70
2022/11/25 03:56:55;;;;;;;22.00;12.63;;;;;;;6.29;94.91;101116.44;4934426;29;20518;-70
2022/11/25 03:59:26;;;;;;;22.90;11.95;;;;;;;6.32;93.98;101107.00;4926020;29;20048;-70
2022/11/25 04:01:55;;;;;;;26.30;12.82;;;;;;;6.29;93.75;101107.47;4917038;29;20056;-70
2022/11/25 04:04:23;;;;;;;20.60;11.75;;;;;;;6.22;94.84;101107.59;4936595;28;20048;-70
2022/11/25 04:06:52;;;;;;;23.15;11.88;;;;;;;6.17;95.54;101105.56;4917212;29;20586;-70
2022/11/25 04:09:24;;;;;;;19.23;11.00;;;;;;;6.15;94.63;101094.13;4933749;29;20068;-70
2022/11/25 04:15:04;;;;;;;20.60;10.77;;;;;;;6.22;95.17;101118.47;4934458;29;20055;-70
2022/11/25 04:17:33;;;;;;;22.35;12.27;;;;;;;6.17;94.83;101121.06;4915881;29;20047;-70
2022/11/25 04:20:03;;;;;;;22.15;12.05;;;;;;;6.18;94.14;101087.38;4932510;29;20055;-70
2022/11/25 04:22:32;;;;;;;21.10;11.27;;;;;;;6.12;93.79;101105.44;4923674;29;20052;-70
2022/11/25 04:25:03;;;;;;;20.65;11.82;;;;;;;6.20;94.24;101117.88;4906049;29;20075;-70
2022/11/25 04:27:32;;;;;;;21.23;10.15;;;;;;;6.20;93.77;101117.06;4917465;29;20044;-70
2022/11/25 04:30:00;;;;;;;19.98;11.68;;;;;;;6.16;94.00;101103.13;4921765;29;20051;-70
2022/11/25 04:32:30;;;;;;;19.30;11.50;;;;;;;6.21;93.94;101096.97;4918650;29;20047;-70
2022/11/25 04:34:58;;;;;;;20.45;11.23;;;;;;;6.06;93.68;101100.97;4917469;29;20044;-70
2022/11/25 04:37:27;;;;;;;18.15;10.75;;;;;;;5.91;94.78;101106.84;4914120;29;20059;-70
2022/11/25 04:39:55;;;;;;;20.88;12.35;;;;;;;6.00;94.57;101115.47;4922902;29;20052;-70
2022/11/25 04:42:33;;;;;;;22.70;12.07;;;;;;;6.02;95.13;101125.06;4920792;29;20051;-70
2022/11/25 04:45:15;;;;;;;22.17;11.55;;;;;;;6.01;95.08;101111.72;4920565;29;20047;-70
2022/11/25 04:47:53;;;;;;;20.88;12.00;;;;;;;5.96;95.54;101114.31;4921719;29;20047;-70
2022/11/25 04:50:23;;;;;;;20.35;10.43;;;;;;;5.98;95.14;101113.00;4957063;28;20047;-70
2022/11/25 04:53:03;;;;;;;19.63;11.40;;;;;;;5.97;96.45;101111.34;4940158;29;20063;-70
2022/11/25 04:55:32;;;;;;;19.10;10.40;;;;;;;5.95;96.61;101101.78;4938767;29;20054;-70
2022/11/25 04:58:05;;;;;;;25.67;12.00;;;;;;;5.99;96.33;101100.25;4938037;29;20620;-70
2022/11/25 05:00:35;;;;;;;23.90;11.63;;;;;;;5.96;95.99;101092.56;4939645;29;20094;-70
2022/11/25 05:03:06;;;;;;;23.40;11.82;;;;;;;5.92;95.74;101074.00;4939733;29;20058;-70
2022/11/25 05:05:38;;;;;;;20.75;12.10;;;;;;;5.84;96.03;101066.22;4938725;29;20062;-70
2022/11/25 05:08:07;;;;;;;23.45;10.88;;;;;;;6.08;95.40;101068.13;4939613;29;20055;-69
2022/11/25 05:10:35;;;;;;;21.48;12.20;;;;;;;6.06;95.47;101076.50;4939624;29;20499;-70
2022/11/25 05:13:03;;;;;;;18.52;11.43;;;;;;;6.12;95.17;101080.19;4939569;29;20063;-70
2022/11/25 05:15:32;;;;;;;18.42;11.00;;;;;;;6.13;94.78;101069.09;4925891;29;20483;-70
2022/11/25 05:18:00;;;;;;;20.33;11.18;;;;;;;6.04;94.66;101075.94;4938160;29;20055;-70
2022/11/25 05:20:41;;;;;;;21.25;11.55;;;;;;;6.08;94.24;101085.28;4904551;29;20403;-70
2022/11/25 05:23:10;;;;;;;16.98;10.52;;;;;;;6.11;94.70;101095.66;4935405;29;20056;-69
2022/11/25 05:25:38;;;;;;;20.23;11.95;;;;;;;6.11;94.94;101100.28;4935412;29;20044;-69
2022/11/25 05:28:26;;;;;;;21.80;11.98;;;;;;;6.10;95.31;101099.44;4956422;29;20427;-70
2022/11/25 05:30:55;;;;;;;20.02;10.73;;;;;;;6.07;95.43;101099.94;4939235;29;20043;-69
2022/11/25 05:33:23;;;;;;;23.65;12.25;;;;;;;5.99;95.44;101081.22;4955025;28;20051;-70
2022/11/25 05:36:00;;;;;;;18.27;10.45;;;;;;;6.05;95.76;101086.56;4937140;29;20040;-69
2022/11/25 05:38:36;;;;;;;20.02;11.68;;;;;;;6.00;95.97;101089.13;4952904;29;20047;-70
2022/11/25 05:41:06;;;;;;;16.95;10.48;;;;;;;6.05;95.39;101085.75;4935126;29;20054;-69
2022/11/25 05:43:34;;;;;;;18.83;11.63;;;;;;;6.15;94.98;101088.69;4935070;29;20051;-70
2022/11/25 05:46:06;;;;;;;22.33;11.55;;;;;;;6.15;95.39;101085.97;4938200;29;20051;-70
2022/11/25 05:48:36;;;;;;;16.60;10.32;;;;;;;6.12;95.39;101085.63;4938159;29;20067;-70
2022/11/25 05:51:07;;;;;;;21.80;11.68;;;;;;;6.07;95.37;101088.22;4955306;29;20380;-70
2022/11/25 05:53:36;;;;;;;22.63;11.88;;;;;;;6.04;95.38;101089.53;4937578;29;20047;-70
2022/11/25 05:56:05;;;;;;;23.63;12.05;;;;;;;6.07;95.67;101086.34;4955902;28;20391;-70
2022/11/25 05:58:58;;;;;;;18.88;10.82;;;;;;;5.94;95.77;101083.81;4925805;29;20055;-70
2022/11/25 06:01:39;;;;;;;21.25;11.63;;;;;;;5.87;95.68;101081.22;4953764;29;20047;-70
2022/11/25 06:04:10;;;;;;;23.02;12.15;;;;;;;5.92;96.29;101082.16;4936925;29;20062;-70
2022/11/25 06:06:38;;;;;;;21.10;10.80;;;;;;;6.02;96.35;101089.75;4938245;29;20050;-70
2022/11/25 06:09:07;;;;;;;25.20;12.63;;;;;;;6.14;96.83;101111.50;4927787;29;20067;-70
2022/11/25 06:11:36;;;;;;;20.27;11.18;;;;;;;6.12;96.70;101110.88;4923162;29;20048;-70
2022/11/25 06:14:04;;;;;;;21.95;12.68;;;;;;;6.14;95.92;101116.09;4900440;29;20051;-70
2022/11/25 06:16:33;;;;;;;22.83;12.68;;;;;;;6.11;95.62;101105.72;4930208;29;20039;-70
2022/11/25 06:19:19;;;;;;;23.15;11.68;;;;;;;6.09;95.01;101111.38;4921897;29;20052;-70
2022/11/25 06:21:47;;;;;;;24.25;11.77;;;;;;;6.07;95.09;101118.13;4940106;29;20051;-70
2022/11/25 06:24:17;;;;;;;24.20;13.23;;;;;;;5.99;95.83;101111.09;4932697;29;20401;-70
2022/11/25 06:26:49;;;;;;;27.63;13.52;;;;;;;5.99;96.25;101120.09;4917381;29;20407;-69
2022/11/25 06:29:18;;;;;;;21.60;12.73;;;;;;;6.03;95.81;101128.63;4895561;29;20407;-69
2022/11/25 06:31:49;;;;;;;25.90;12.90;;;;;;;6.09;95.88;101130.41;4916632;29;20071;-70
2022/11/25 06:34:41;;;;;;;25.55;12.45;;;;;;;6.03;95.49;101137.59;4919005;29;20060;-70
2022/11/25 06:37:28;;;;;;;26.00;13.07;;;;;;;5.97;95.87;101124.09;4936925;29;20055;-70
2022/11/25 06:39:56;;;;;;;27.60;13.02;;;;;;;5.99;95.32;101135.56;4934715;29;20044;-70
2022/11/25 06:42:26;;;;;;;26.88;12.77;;;;;;;5.88;95.69;101129.88;4935662;29;20040;-70
2022/11/25 06:44:54;;;;;;;28.92;13.70;;;;;;;5.97;95.79;101148.56;4919754;29;20051;-70
2022/11/25 06:47:22;;;;;;;23.70;13.13;;;;;;;5.98;95.08;101145.63;4935737;29;20398;-70
2022/11/25 06:49:50;;;;;;;23.65;13.27;;;;;;;5.76;95.69;101148.88;4914635;29;20052;-70
2022/11/25 06:52:18;;;;;;;23.58;11.93;;;;;;;5.72;95.53;101150.41;4929382;29;20048;-70
2022/11/25 06:54:50;;;;;;;22.40;12.27;;;;;;;5.73;95.36;101148.53;4935263;29;20051;-70
2022/11/25 06:57:20;;;;;;;24.92;12.65;;;;;;;5.62;95.74;101148.25;4935538;29;20479;-70
2022/11/25 06:59:50;;;;;;;23.08;12.07;;;;;;;5.62;95.79;101158.31;4918198;29;20047;-70
2022/11/25 07:02:18;;;;;;;18.88;11.32;;;;;;;5.64;96.39;101172.47;4945346;29;20394;-70
2022/11/25 07:04:49;;;;;;;23.08;13.63;;;;;;;5.65;96.70;101174.13;4952395;29;20047;-69
2022/11/25 07:07:19;;;;;;;25.55;12.93;;;;;;;5.63;96.77;101176.25;4935327;29;20059;-69
2022/11/25 07:09:47;;;;;;;26.50;13.07;;;;;;;5.67;97.01;101171.19;4945328;29;20044;-69
2022/11/25 07:12:15;;;;;;;25.02;12.77;;;;;;;5.71;97.68;101180.53;4951777;29;20047;-69
2022/11/25 07:14:43;;;;;;;23.30;13.50;;;;;;;5.60;97.46;101169.41;4939506;29;20051;-69
2022/11/25 07:17:11;;;;;;;27.30;13.38;;;;;;;5.70;97.30;101181.56;4949772;28;20070;-69
2022/11/25 07:19:39;;;;;;;23.80;13.45;;;;;;;5.77;96.46;101187.75;4934929;29;20062;-69
2022/11/25 07:22:07;;;;;;;20.50;12.75;;;;;;;5.77;96.81;101176.88;4934836;29;20062;-69
2022/11/25 07:24:37;;;;;;;26.20;12.80;;;;;;;5.87;96.19;101171.69;4933495;29;20050;-69
2022/11/25 07:27:07;;;;;;;25.38;12.35;;;;;;;5.88;95.10;101177.97;4933863;29;20044;-69
2022/11/25 07:29:36;;;;;;;21.58;12.00;;;;;;;5.97;94.91;101181.97;4932396;29;20483;-69
2022/11/25 07:32:24;;;;;;;21.42;11.63;;;;;;;6.08;93.28;101177.66;4941750;29;20422;-69
2022/11/25 07:34:51;;;;;;;20.10;10.85;;;;;;;6.15;93.17;101181.09;4946483;29;20055;-69
2022/11/25 07:37:19;;;;;;;20.92;10.73;;;;;;;6.41;92.79;101180.88;4935466;29;20059;-69
2022/11/25 07:39:47;;;;;;;18.27;10.50;;;;;;;6.62;90.46;101187.59;4933026;29;20048;-69
2022/11/25 07:42:15;;;;;;;19.02;11.20;;;;;;;6.74;90.11;101194.91;4938034;29;20058;-69
2022/11/25 07:44:43;;;;;;;18.08;10.20;;;;;;;6.91;90.35;101195.00;4953018;29;20561;-70
2022/11/25 07:47:46;;;;;;;16.40;10.45;;;;;;;7.09;89.13;101191.28;4942878;28;20388;-69
2022/11/25 07:50:14;;;;;;;23.92;11.98;;;;;;;7.12;88.95;101193.50;4953086;29;20058;-69
2022/11/25 07:52:41;;;;;;;22.23;11.40;;;;;;;7.35;88.17;101189.06;4953653;29;20051;-69
2022/11/25 07:55:09;;;;;;;21.60;11.88;;;;;;;7.46;87.69;101188.19;4936637;29;20521;-70
2022/11/25 07:57:37;;;;;;;20.17;11.05;;;;;;;7.68;87.26;101184.75;4953960;29;20043;-70
2022/11/25 08:00:06;;;;;;;19.08;10.65;;;;;;;7.64;86.42;101191.75;4953182;29;20055;-70
2022/11/25 08:02:43;;;;;;;21.20;12.63;;;;;;;7.77;86.61;101196.91;4953905;29;20070;-70
2022/11/25 08:05:11;;;;;;;18.23;11.43;;;;;;;7.92;86.64;101187.34;4953799;29;20103;-70
2022/11/25 08:07:39;;;;;;;22.13;12.25;;;;;;;8.07;86.00;101190.31;4954381;28;20058;-70
2022/11/25 08:10:07;;;;;;;19.45;10.93;;;;;;;8.33;85.10;101192.63;4956958;29;20047;-70
2022/11/25 08:12:35;;;;;;;23.88;12.45;;;;;;;8.19;86.18;101189.41;4956727;29;20499;-70
2022/11/25 08:15:03;;;;;;;19.95;11.15;;;;;;;8.57;86.23;101192.44;4957615;28;20051;-70
2022/11/25 08:17:31;;;;;;;23.17;12.30;;;;;;;8.71;84.43;101192.91;4956222;29;20062;-70
2022/11/25 08:19:58;;;;;;;21.48;11.73;;;;;;;8.87;84.63;101200.22;4956492;29;20051;-70
2022/11/25 08:22:27;;;;;;;20.15;11.52;;;;;;;8.99;84.92;101204.72;4956282;29;20055;-70
2022/11/25 08:24:54;;;;;;;22.20;11.48;;;;;;;9.09;84.09;101204.84;4956600;29;20047;-70
2022/11/25 08:27:22;;;;;;;20.15;10.60;;;;;;;9.16;83.56;101210.13;4956754;28;20051;-70
2022/11/25 08:29:50;;;;;;;18.98;11.25;;;;;;;9.41;82.60;101206.03;4952948;29;20051;-70
2022/11/25 08:32:18;;;;;;;22.55;10.88;;;;;;;9.54;81.64;101215.75;4940546;29;20046;-70
2022/11/25 08:34:46;;;;;;;22.85;11.35;;;;;;;9.74;81.20;101214.28;4955981;29;20051;-70
2022/11/25 08:37:13;;;;;;;18.80;10.95;;;;;;;9.86;80.43;101211.38;4938957;29;20438;-70
2022/11/25 08:39:41;;;;;;;21.38;10.80;;;;;;;10.14;78.66;101209.44;4957175;29;20051;-70
2022/11/25 08:42:25;;;;;;;19.15;11.07;;;;;;;10.29;78.93;101214.19;4955890;29;20051;-68
2022/11/25 08:44:54;;;;;;;19.63;10.77;;;;;;;10.44;78.38;101208.88;4955724;29;20047;-68
2022/11/25 08:47:23;;;;;;;21.85;10.27;;;;;;;10.56;77.61;101221.53;4957127;29;20059;-68
2022/11/25 08:49:52;;;;;;;23.10;10.13;;;;;;;10.66;77.60;101210.63;4956372;29;20406;-70
2022/11/25 08:52:20;;;;;;;17.65;10.70;;;;;;;10.90;76.86;101212.94;4956113;29;20051;-68
2022/11/25 08:54:48;;;;;;;20.95;10.50;;;;;;;11.01;76.36;101209.16;4956901;29;20043;-69
2022/11/25 08:57:16;;;;;;;24.20;11.65;;;;;;;11.14;76.17;101207.00;4956200;29;20047;-69
2022/11/25 08:59:44;;;;;;;20.63;10.60;;;;;;;11.34;74.03;101206.25;4955359;29;20058;-69
2022/11/25 09:02:14;;;;;;;19.38;10.40;;;;;;;11.35;73.59;101207.09;4955468;29;20059;-69
2022/11/25 09:04:43;;;;;;;17.85;9.77;;;;;;;11.35;73.82;101210.66;4955993;29;20047;-69
2022/11/25 09:07:11;;;;;;;25.02;11.23;;;;;;;11.43;74.39;101201.91;4955975;29;20054;-69
2022/11/25 09:09:39;;;;;;;21.48;10.15;;;;;;;11.56;73.57;101206.06;4956654;29;20506;-69
2022/11/25 09:12:07;;;;;;;18.58;11.82;;;;;;;11.63;73.45;101207.72;4955928;29;20113;-69
2022/11/25 09:14:35;;;;;;;19.40;11.27;;;;;;;11.87;72.31;101204.47;4955246;29;20054;-69
2022/11/25 09:17:10;;;;;;;23.65;11.93;;;;;;;12.08;70.67;101203.38;4956005;29;20058;-69
2022/11/25 09:19:38;;;;;;;27.50;12.48;;;;;;;12.12;71.60;101200.09;4955163;28;20063;-69
2022/11/25 09:22:06;;;;;;;20.48;10.73;;;;;;;12.14;71.04;101197.88;4954992;29;20047;-69
2022/11/25 09:24:34;;;;;;;19.48;11.23;;;;;;;12.25;69.12;101196.78;4955706;29;20403;-69
2022/11/25 09:27:02;;;;;;;17.70;11.15;;;;;;;12.56;69.73;101212.38;4955344;29;20055;-69
2022/11/25 09:29:30;;;;;;;18.42;10.85;;;;;;;12.74;68.79;101208.22;4955437;29;20407;-69
2022/11/25 09:31:58;;;;;;;21.80;12.10;;;;;;;12.80;67.96;101212.59;4955342;29;20055;-69
2022/11/25 09:34:26;;;;;;;14.50;9.32;;;;;;;12.93;64.79;101210.34;4955033;29;20055;-69
2022/11/25 09:36:54;;;;;;;15.30;9.73;;;;;;;12.89;64.69;101205.44;4955509;29;20055;-69
2022/11/25 09:39:26;;;;;;;16.23;9.02;;;;;;;12.95;62.78;101210.91;4955996;28;20397;-69
2022/11/25 09:49:07;;;;;;;17.25;8.88;;;;;;;13.29;61.48;101204.69;4955229;29;20051;-69
2022/11/25 09:52:08;;;;;;;17.67;9.95;;;;;;;13.44;61.71;101204.59;4934205;29;20160;-69
2022/11/25 09:54:47;;;;;;;15.85;9.48;;;;;;;13.48;61.67;101215.09;4926082;29;20059;-69
2022/11/25 09:57:29;;;;;;;20.08;9.90;;;;;;;13.22;61.58;101202.25;4955906;29;20046;-69
2022/11/25 10:00:11;;;;;;;19.05;9.98;;;;;;;13.42;61.93;101217.81;4955111;29;20384;-69
2022/11/25 10:03:12;;;;;;;16.77;10.00;;;;;;;13.60;61.37;101209.22;4954433;29;20066;-69
2022/11/25 10:05:42;;;;;;;16.55;9.63;;;;;;;13.73;59.08;101210.53;4954659;29;20055;-69
2022/11/25 10:08:17;;;;;;;16.55;9.45;;;;;;;13.79;58.14;101217.63;4955588;29;20047;-69
2022/11/25 10:10:47;;;;;;;15.35;9.02;;;;;;;13.86;59.28;101215.38;4954313;29;20059;-69
2022/11/25 10:13:22;;;;;;;17.27;9.57;;;;;;;13.95;58.82;101207.31;4954525;29;20055;-68
2022/11/25 10:15:51;;;;;;;;;;;;;;;13.50;59.95;101205.41;4955888;29;20058;-68
2022/11/25 10:18:51;;;;;;;16.17;9.23;;;;;;;13.47;58.46;101207.91;4954594;29;19923;-68
2022/11/25 10:21:21;;;;;;;14.30;8.82;;;;;;;13.55;60.13;101205.38;4936129;29;20059;-68
2022/11/25 10:23:49;;;;;;;15.55;8.75;;;;;;;13.76;59.51;101207.19;4937499;29;20066;-68
2022/11/25 10:26:21;;;;;;;12.27;7.53;;;;;;;13.87;58.60;101200.50;4954205;29;20052;-69
2022/11/25 10:29:22;;;;;;;13.85;8.85;;;;;;;13.78;60.17;101199.47;4954572;29;20066;-68
2022/11/25 10:31:59;;;;;;;14.73;8.65;;;;;;;13.50;60.69;101188.13;4953803;29;20524;-68
2022/11/25 10:34:33;;;;;;;16.33;9.93;;;;;;;13.80;61.61;101189.84;4953891;29;20059;-68
2022/11/25 10:37:08;;;;;;;15.82;8.13;;;;;;;13.62;61.01;101191.34;4955147;29;20047;-68
2022/11/25 10:39:36;;;;;;;11.57;7.38;;;;;;;13.70;62.16;101190.72;4954238;29;20047;-68
2022/11/25 10:42:20;;;;;;;11.43;7.03;;;;;;;13.51;62.55;101185.09;4927972;29;20062;-68
2022/11/25 10:44:49;;;;;;;12.88;7.82;;;;;;;13.74;62.39;101193.72;4942216;29;20052;-68
2022/11/25 10:47:48;;;;;;;13.93;8.15;;;;;;;13.79;62.74;101187.38;4907651;29;20044;-68
2022/11/25 10:50:21;;;;;;;16.75;8.05;;;;;;;13.67;62.53;101180.31;4934854;29;20403;-68
2022/11/25 10:52:59;;;;;;;20.52;11.23;;;;;;;14.12;61.25;101184.88;4934743;29;20056;-68
2022/11/25 10:55:30;;;;;;;21.08;10.68;;;;;;;14.21;61.30;101191.41;4926295;29;20054;-69
2022/11/25 10:58:03;;;;;;;13.88;8.60;;;;;;;14.22;60.68;101186.72;4952671;29;20043;-69
2022/11/25 11:00:37;;;;;;;13.32;8.73;;;;;;;14.37;60.96;101191.25;4954610;29;20380;-69
2022/11/25 11:03:23;;;;;;;13.35;8.65;;;;;;;14.09;61.82;101186.28;4922387;29;20055;-68
2022/11/25 11:05:52;;;;;;;14.30;8.85;;;;;;;13.80;62.39;101178.84;4918181;29;20626;-68
2022/11/25 11:08:38;;;;;;;14.30;8.43;;;;;;;14.21;62.03;101183.16;4934940;29;20050;-69
2022/11/25 11:11:24;;;;;;;17.08;8.40;;;;;;;14.32;61.80;101170.09;4935292;29;20044;-70
2022/11/25 11:14:16;;;;;;;11.52;7.55;;;;;;;14.23;61.71;101167.16;4935335;29;20048;-68
2022/11/25 11:16:52;;;;;;;15.52;8.00;;;;;;;14.05;62.42;101163.22;4934345;29;20411;-68
2022/11/25 11:19:23;;;;;;;13.25;7.70;;;;;;;13.67;64.16;101155.53;4934355;29;20503;-68
2022/11/25 11:21:51;;;;;;;14.13;8.43;;;;;;;14.05;64.07;101156.88;4918008;29;20059;-68
2022/11/25 11:24:28;;;;;;;11.77;6.93;;;;;;;13.57;64.31;101152.88;4935014;29;20535;-68
2022/11/25 11:27:08;;;;;;;14.57;7.63;;;;;;;14.10;62.81;101154.91;4934498;29;20055;-68
2022/11/25 11:29:36;;;;;;;11.60;7.28;;;;;;;14.31;63.36;101149.19;4932486;29;20060;-68
2022/11/25 11:32:19;;;;;;;9.93;7.53;;;;;;;14.22;62.68;101145.41;4937432;29;20407;-68
2022/11/25 11:35:21;;;;;;;12.10;7.50;;;;;;;14.63;61.40;101141.41;4934948;29;20403;-68
2022/11/25 11:37:53;;;;;;;16.65;8.65;;;;;;;14.58;61.90;101150.56;4923444;29;20073;-68
2022/11/25 11:40:42;;;;;;;14.95;9.38;;;;;;;14.58;60.90;101131.28;4935838;29;20047;-68
2022/11/25 11:43:31;;;;;;;9.98;6.68;;;;;;;14.64;62.08;101140.28;4941457;29;20050;-68
2022/11/25 11:46:11;;;;;;;11.00;7.10;;;;;;;14.81;60.88;101139.03;4950340;29;20058;-68
2022/11/25 11:48:42;;;;;;;13.73;7.25;;;;;;;14.28;63.05;101137.94;4937350;29;20056;-68
2022/11/25 11:51:12;;;;;;;10.85;7.20;;;;;;;14.50;62.69;101141.00;4933073;29;20055;-68
2022/11/25 11:53:56;;;;;;;13.30;7.40;;;;;;;14.67;61.45;101133.38;4933755;29;20090;-68
2022/11/25 11:56:45;;;;;;;15.30;7.68;;;;;;;14.69;61.38;101131.13;4941194;29;20059;-68